sensor_id;sensor_type;location;lat;lon;timestamp;pressure;altitude;pressure_sealevel;temperature;humidity
75629;BME280;64213;46.452;16.994;2023-06-19T00:01:31;99635.41;;;19.19;69.28
75629;BME280;64213;46.452;16.994;2023-06-19T00:04:33;99638.03;;;19.11;69.81
75629;BME280;64213;46.452;16.994;2023-06-19T00:07:36;99633.88;;;19.09;69.87
75629;BME280;64213;46.452;16.994;2023-06-19T00:10:38;99635.87;;;19.07;69.98
75629;BME280;64213;46.452;16.994;2023-06-19T00:13:41;99639.38;;;18.99;70.59
75629;BME280;64213;46.452;16.994;2023-06-19T00:16:44;99638.62;;;18.89;70.96
75629;BME280;64213;46.452;16.994;2023-06-19T00:19:46;99636.78;;;18.81;70.80
75629;BME280;64213;46.452;16.994;2023-06-19T00:22:50;99635.44;;;18.77;71.39
75629;BME280;64213;46.452;16.994;2023-06-19T00:25:53;99641.72;;;18.68;71.70
75629;BME280;64213;46.452;16.994;2023-06-19T00:28:56;99633.16;;;18.64;71.62
75629;BME280;64213;46.452;16.994;2023-06-19T00:31:59;99631.62;;;18.62;72.27
75629;BME280;64213;46.452;16.994;2023-06-19T00:35:01;99641.31;;;18.54;71.64
75629;BME280;64213;46.452;16.994;2023-06-19T00:38:05;99637.44;;;18.49;72.16
75629;BME280;64213;46.452;16.994;2023-06-19T00:41:08;99644.63;;;18.48;72.22
75629;BME280;64213;46.452;16.994;2023-06-19T00:44:10;99646.78;;;18.45;72.72
75629;BME280;64213;46.452;16.994;2023-06-19T00:47:12;99642.41;;;18.44;72.89
75629;BME280;64213;46.452;16.994;2023-06-19T00:50:15;99637.69;;;18.37;73.22
75629;BME280;64213;46.452;16.994;2023-06-19T00:53:19;99637.66;;;18.29;74.65
75629;BME280;64213;46.452;16.994;2023-06-19T00:56:21;99633.44;;;18.27;74.52
75629;BME280;64213;46.452;16.994;2023-06-19T00:59:23;99629.03;;;18.18;74.92
75629;BME280;64213;46.452;16.994;2023-06-19T01:02:26;99630.69;;;18.19;75.33
75629;BME280;64213;46.452;16.994;2023-06-19T01:05:28;99623.34;;;18.12;75.13
75629;BME280;64213;46.452;16.994;2023-06-19T01:08:44;99622.44;;;18.04;75.00
75629;BME280;64213;46.452;16.994;2023-06-19T01:11:52;99622.03;;;17.99;75.13
75629;BME280;64213;46.452;16.994;2023-06-19T01:15:00;99632.69;;;17.91;76.19
75629;BME280;64213;46.452;16.994;2023-06-19T01:18:05;99619.00;;;17.76;75.81
75629;BME280;64213;46.452;16.994;2023-06-19T01:21:15;99627.19;;;17.74;76.89
75629;BME280;64213;46.452;16.994;2023-06-19T01:24:18;99622.97;;;17.72;77.13
75629;BME280;64213;46.452;16.994;2023-06-19T01:27:21;99626.31;;;17.74;77.32
75629;BME280;64213;46.452;16.994;2023-06-19T01:30:25;99623.81;;;17.72;76.99
75629;BME280;64213;46.452;16.994;2023-06-19T01:33:28;99627.81;;;17.68;77.01
75629;BME280;64213;46.452;16.994;2023-06-19T01:36:33;99628.34;;;17.72;77.00
75629;BME280;64213;46.452;16.994;2023-06-19T01:39:37;99627.09;;;17.66;77.61
75629;BME280;64213;46.452;16.994;2023-06-19T01:42:40;99629.78;;;17.66;77.77
75629;BME280;64213;46.452;16.994;2023-06-19T01:45:43;99624.75;;;17.63;77.65
75629;BME280;64213;46.452;16.994;2023-06-19T01:48:45;99623.91;;;17.62;77.62
75629;BME280;64213;46.452;16.994;2023-06-19T01:51:47;99633.53;;;17.55;77.72
75629;BME280;64213;46.452;16.994;2023-06-19T01:54:50;99627.09;;;17.48;78.31
75629;BME280;64213;46.452;16.994;2023-06-19T01:57:52;99629.63;;;17.50;77.70
75629;BME280;64213;46.452;16.994;2023-06-19T02:00:54;99636.97;;;17.48;78.46
75629;BME280;64213;46.452;16.994;2023-06-19T02:03:57;99629.53;;;17.41;78.77
75629;BME280;64213;46.452;16.994;2023-06-19T02:06:59;99630.16;;;17.35;78.73
75629;BME280;64213;46.452;16.994;2023-06-19T02:10:02;99626.81;;;17.33;78.39
75629;BME280;64213;46.452;16.994;2023-06-19T02:13:04;99629.09;;;17.28;79.32
75629;BME280;64213;46.452;16.994;2023-06-19T02:16:06;99628.72;;;17.23;79.30
75629;BME280;64213;46.452;16.994;2023-06-19T02:19:10;99627.31;;;17.19;79.28
75629;BME280;64213;46.452;16.994;2023-06-19T02:22:13;99627.31;;;17.19;79.41
75629;BME280;64213;46.452;16.994;2023-06-19T02:25:15;99631.00;;;17.18;78.87
75629;BME280;64213;46.452;16.994;2023-06-19T02:28:17;99619.59;;;17.16;79.24
75629;BME280;64213;46.452;16.994;2023-06-19T02:31:21;99632.19;;;17.06;79.74
75629;BME280;64213;46.452;16.994;2023-06-19T02:34:23;99632.47;;;17.03;79.69
75629;BME280;64213;46.452;16.994;2023-06-19T02:37:26;99628.50;;;16.89;80.38
75629;BME280;64213;46.452;16.994;2023-06-19T02:40:28;99631.16;;;16.89;79.96
75629;BME280;64213;46.452;16.994;2023-06-19T02:43:30;99623.75;;;16.83;80.31
75629;BME280;64213;46.452;16.994;2023-06-19T02:46:32;99626.41;;;16.83;80.34
75629;BME280;64213;46.452;16.994;2023-06-19T02:49:34;99625.81;;;16.89;80.19
75629;BME280;64213;46.452;16.994;2023-06-19T02:52:37;99626.38;;;16.92;80.10
75629;BME280;64213;46.452;16.994;2023-06-19T02:55:39;99634.06;;;16.95;79.35
75629;BME280;64213;46.452;16.994;2023-06-19T02:58:41;99633.91;;;16.97;79.32
75629;BME280;64213;46.452;16.994;2023-06-19T03:01:43;99629.44;;;16.98;79.56
75629;BME280;64213;46.452;16.994;2023-06-19T03:04:46;99627.44;;;17.00;79.63
75629;BME280;64213;46.452;16.994;2023-06-19T03:07:48;99623.47;;;17.04;79.59
75629;BME280;64213;46.452;16.994;2023-06-19T03:10:51;99618.59;;;16.99;79.48
75629;BME280;64213;46.452;16.994;2023-06-19T03:13:54;99628.28;;;17.00;79.72
75629;BME280;64213;46.452;16.994;2023-06-19T03:16:56;99620.72;;;16.95;79.74
75629;BME280;64213;46.452;16.994;2023-06-19T03:19:58;99617.41;;;16.84;79.86
75629;BME280;64213;46.452;16.994;2023-06-19T03:23:01;99626.72;;;16.80;80.39
75629;BME280;64213;46.452;16.994;2023-06-19T03:26:03;99630.09;;;16.82;80.17
75629;BME280;64213;46.452;16.994;2023-06-19T03:29:05;99630.31;;;16.88;79.92
75629;BME280;64213;46.452;16.994;2023-06-19T03:32:07;99641.69;;;16.90;79.57
75629;BME280;64213;46.452;16.994;2023-06-19T03:35:10;99637.19;;;16.91;79.57
75629;BME280;64213;46.452;16.994;2023-06-19T03:38:12;99634.66;;;16.89;79.43
75629;BME280;64213;46.452;16.994;2023-06-19T03:41:15;99635.97;;;16.85;79.82
75629;BME280;64213;46.452;16.994;2023-06-19T03:44:18;99641.00;;;16.88;79.46
75629;BME280;64213;46.452;16.994;2023-06-19T03:47:21;99646.72;;;16.93;79.95
75629;BME280;64213;46.452;16.994;2023-06-19T03:50:23;99642.09;;;16.95;79.53
75629;BME280;64213;46.452;16.994;2023-06-19T03:53:28;99650.81;;;16.98;79.90
75629;BME280;64213;46.452;16.994;2023-06-19T03:56:30;99639.00;;;16.90;80.34
75629;BME280;64213;46.452;16.994;2023-06-19T03:59:32;99641.59;;;16.82;80.17
75629;BME280;64213;46.452;16.994;2023-06-19T04:02:35;99641.47;;;16.74;80.92
75629;BME280;64213;46.452;16.994;2023-06-19T04:05:37;99638.13;;;16.72;80.76
75629;BME280;64213;46.452;16.994;2023-06-19T04:08:40;99640.19;;;16.78;80.53
75629;BME280;64213;46.452;16.994;2023-06-19T04:11:43;99639.22;;;16.79;80.41
75629;BME280;64213;46.452;16.994;2023-06-19T04:14:45;99636.41;;;16.81;80.21
75629;BME280;64213;46.452;16.994;2023-06-19T04:17:47;99635.97;;;16.85;80.12
75629;BME280;64213;46.452;16.994;2023-06-19T04:20:49;99632.69;;;16.91;79.91
75629;BME280;64213;46.452;16.994;2023-06-19T04:23:51;99637.59;;;16.96;80.04
75629;BME280;64213;46.452;16.994;2023-06-19T04:26:54;99643.56;;;17.08;79.71
75629;BME280;64213;46.452;16.994;2023-06-19T04:29:56;99635.63;;;17.16;78.95
75629;BME280;64213;46.452;16.994;2023-06-19T04:32:59;99642.75;;;17.25;79.17
75629;BME280;64213;46.452;16.994;2023-06-19T04:36:01;99648.78;;;17.27;78.89
75629;BME280;64213;46.452;16.994;2023-06-19T04:39:03;99650.87;;;17.33;78.58
75629;BME280;64213;46.452;16.994;2023-06-19T04:42:06;99651.16;;;17.30;78.59
75629;BME280;64213;46.452;16.994;2023-06-19T04:45:08;99656.28;;;17.41;78.22
75629;BME280;64213;46.452;16.994;2023-06-19T04:48:11;99669.34;;;17.44;78.00
75629;BME280;64213;46.452;16.994;2023-06-19T04:51:13;99665.63;;;17.55;77.92
75629;BME280;64213;46.452;16.994;2023-06-19T04:54:16;99671.81;;;17.56;77.71
75629;BME280;64213;46.452;16.994;2023-06-19T04:57:18;99665.87;;;17.62;77.47
75629;BME280;64213;46.452;16.994;2023-06-19T05:00:20;99669.38;;;17.80;77.27
75629;BME280;64213;46.452;16.994;2023-06-19T05:03:25;99672.00;;;17.90;76.53
75629;BME280;64213;46.452;16.994;2023-06-19T05:06:27;99672.78;;;18.08;75.84
75629;BME280;64213;46.452;16.994;2023-06-19T05:09:30;99669.72;;;18.21;75.21
75629;BME280;64213;46.452;16.994;2023-06-19T05:12:34;99678.03;;;18.36;74.72
75629;BME280;64213;46.452;16.994;2023-06-19T05:15:36;99673.72;;;18.43;74.07
75629;BME280;64213;46.452;16.994;2023-06-19T05:18:39;99679.66;;;18.55;73.88
75629;BME280;64213;46.452;16.994;2023-06-19T05:21:41;99676.16;;;18.63;73.49
75629;BME280;64213;46.452;16.994;2023-06-19T05:24:43;99676.38;;;18.69;73.19
75629;BME280;64213;46.452;16.994;2023-06-19T05:27:45;99679.00;;;18.87;72.93
75629;BME280;64213;46.452;16.994;2023-06-19T05:30:47;99692.47;;;19.03;72.23
75629;BME280;64213;46.452;16.994;2023-06-19T05:33:52;99698.72;;;19.12;71.85
75629;BME280;64213;46.452;16.994;2023-06-19T05:36:54;99691.38;;;19.22;72.00
75629;BME280;64213;46.452;16.994;2023-06-19T05:39:56;99691.44;;;19.31;71.75
75629;BME280;64213;46.452;16.994;2023-06-19T05:42:59;99700.31;;;19.39;71.46
75629;BME280;64213;46.452;16.994;2023-06-19T05:46:01;99705.22;;;19.52;70.28
75629;BME280;64213;46.452;16.994;2023-06-19T05:49:04;99697.72;;;19.64;70.07
75629;BME280;64213;46.452;16.994;2023-06-19T05:52:06;99694.22;;;19.80;69.67
75629;BME280;64213;46.452;16.994;2023-06-19T05:55:10;99701.44;;;19.95;69.17
75629;BME280;64213;46.452;16.994;2023-06-19T05:58:12;99701.63;;;20.10;68.90
75629;BME280;64213;46.452;16.994;2023-06-19T06:01:15;99693.91;;;20.24;68.47
75629;BME280;64213;46.452;16.994;2023-06-19T06:04:19;99693.88;;;20.40;67.88
75629;BME280;64213;46.452;16.994;2023-06-19T06:07:24;99690.00;;;20.51;67.47
75629;BME280;64213;46.452;16.994;2023-06-19T06:10:26;99699.41;;;20.55;66.62
75629;BME280;64213;46.452;16.994;2023-06-19T06:13:29;99706.78;;;20.61;66.23
75629;BME280;64213;46.452;16.994;2023-06-19T06:16:31;99705.91;;;20.77;65.62
75629;BME280;64213;46.452;16.994;2023-06-19T06:19:33;99709.28;;;20.79;65.70
75629;BME280;64213;46.452;16.994;2023-06-19T06:22:35;99714.44;;;20.97;65.15
75629;BME280;64213;46.452;16.994;2023-06-19T06:25:37;99717.56;;;21.17;64.82
75629;BME280;64213;46.452;16.994;2023-06-19T06:28:40;99719.84;;;21.67;62.65
75629;BME280;64213;46.452;16.994;2023-06-19T06:31:46;99721.75;;;21.81;59.82
75629;BME280;64213;46.452;16.994;2023-06-19T06:34:48;99727.56;;;22.39;57.38
75629;BME280;64213;46.452;16.994;2023-06-19T06:37:51;99724.31;;;22.82;56.17
75629;BME280;64213;46.452;16.994;2023-06-19T06:40:53;99730.25;;;23.07;55.01
75629;BME280;64213;46.452;16.994;2023-06-19T06:43:55;99741.66;;;23.53;53.57
75629;BME280;64213;46.452;16.994;2023-06-19T06:46:57;99737.16;;;23.75;52.68
75629;BME280;64213;46.452;16.994;2023-06-19T06:50:00;99739.44;;;23.93;52.18
75629;BME280;64213;46.452;16.994;2023-06-19T06:53:02;99732.03;;;23.80;51.99
75629;BME280;64213;46.452;16.994;2023-06-19T06:56:04;99733.09;;;23.86;52.30
75629;BME280;64213;46.452;16.994;2023-06-19T06:59:07;99733.06;;;24.01;51.95
75629;BME280;64213;46.452;16.994;2023-06-19T07:02:09;99741.03;;;24.30;51.69
75629;BME280;64213;46.452;16.994;2023-06-19T07:05:11;99735.47;;;24.95;50.51
75629;BME280;64213;46.452;16.994;2023-06-19T07:08:14;99730.81;;;24.82;49.90
75629;BME280;64213;46.452;16.994;2023-06-19T07:11:16;99730.78;;;25.10;49.30
75629;BME280;64213;46.452;16.994;2023-06-19T07:14:18;99726.34;;;25.31;48.48
75629;BME280;64213;46.452;16.994;2023-06-19T07:17:20;99727.94;;;25.66;47.67
75629;BME280;64213;46.452;16.994;2023-06-19T07:20:23;99724.50;;;26.06;47.02
75629;BME280;64213;46.452;16.994;2023-06-19T07:23:25;99723.25;;;26.21;46.44
75629;BME280;64213;46.452;16.994;2023-06-19T07:26:28;99719.28;;;26.71;44.44
75629;BME280;64213;46.452;16.994;2023-06-19T07:29:30;99718.84;;;26.74;44.89
75629;BME280;64213;46.452;16.994;2023-06-19T07:32:33;99720.84;;;27.25;43.89
75629;BME280;64213;46.452;16.994;2023-06-19T07:35:35;99716.09;;;27.13;43.96
75629;BME280;64213;46.452;16.994;2023-06-19T07:38:38;99721.59;;;27.45;43.63
75629;BME280;64213;46.452;16.994;2023-06-19T07:41:40;99716.88;;;27.21;43.81
75629;BME280;64213;46.452;16.994;2023-06-19T07:44:43;99717.97;;;27.06;43.36
75629;BME280;64213;46.452;16.994;2023-06-19T07:47:54;99720.06;;;27.04;43.35
75629;BME280;64213;46.452;16.994;2023-06-19T07:50:57;99723.44;;;26.93;42.06
75629;BME280;64213;46.452;16.994;2023-06-19T07:53:59;99724.28;;;26.74;42.43
75629;BME280;64213;46.452;16.994;2023-06-19T07:57:02;99720.41;;;27.28;41.84
75629;BME280;64213;46.452;16.994;2023-06-19T08:00:05;99730.12;;;28.25;40.08
75629;BME280;64213;46.452;16.994;2023-06-19T08:03:13;99716.25;;;28.34;39.61
75629;BME280;64213;46.452;16.994;2023-06-19T08:06:15;99722.22;;;28.17;39.76
75629;BME280;64213;46.452;16.994;2023-06-19T08:09:17;99718.09;;;28.15;39.61
75629;BME280;64213;46.452;16.994;2023-06-19T08:12:20;99723.03;;;27.93;39.77
75629;BME280;64213;46.452;16.994;2023-06-19T08:15:22;99701.78;;;28.33;39.23
75629;BME280;64213;46.452;16.994;2023-06-19T08:18:24;99724.59;;;27.69;39.39
75629;BME280;64213;46.452;16.994;2023-06-19T08:21:26;99720.13;;;27.88;40.15
75629;BME280;64213;46.452;16.994;2023-06-19T08:24:29;99720.44;;;28.04;39.24
75629;BME280;64213;46.452;16.994;2023-06-19T08:27:31;99716.44;;;28.82;37.70
75629;BME280;64213;46.452;16.994;2023-06-19T08:30:33;99718.56;;;28.98;38.02
75629;BME280;64213;46.452;16.994;2023-06-19T08:33:36;99704.09;;;29.23;38.12
75629;BME280;64213;46.452;16.994;2023-06-19T08:36:38;99708.31;;;29.19;37.86
75629;BME280;64213;46.452;16.994;2023-06-19T08:39:40;99712.13;;;29.97;36.54
75629;BME280;64213;46.452;16.994;2023-06-19T08:42:42;99716.50;;;29.98;36.78
75629;BME280;64213;46.452;16.994;2023-06-19T08:49:05;99715.91;;;30.61;35.74
75629;BME280;64213;46.452;16.994;2023-06-19T08:52:12;99717.34;;;29.68;36.76
75629;BME280;64213;46.452;16.994;2023-06-19T08:55:15;99719.19;;;30.28;35.79
75629;BME280;64213;46.452;16.994;2023-06-19T08:58:22;99708.78;;;30.84;34.97
75629;BME280;64213;46.452;16.994;2023-06-19T09:01:25;99716.03;;;30.01;36.63
75629;BME280;64213;46.452;16.994;2023-06-19T09:04:28;99707.00;;;30.42;36.08
75629;BME280;64213;46.452;16.994;2023-06-19T09:07:33;99710.72;;;31.23;34.57
75629;BME280;64213;46.452;16.994;2023-06-19T09:10:35;99712.31;;;30.37;35.42
75629;BME280;64213;46.452;16.994;2023-06-19T09:13:37;99706.28;;;30.35;35.41
75629;BME280;64213;46.452;16.994;2023-06-19T09:16:40;99702.81;;;30.40;35.45
75629;BME280;64213;46.452;16.994;2023-06-19T09:19:51;99699.69;;;31.18;34.53
75629;BME280;64213;46.452;16.994;2023-06-19T09:22:57;99701.91;;;30.81;34.82
75629;BME280;64213;46.452;16.994;2023-06-19T09:26:00;99698.13;;;31.22;34.02
75629;BME280;64213;46.452;16.994;2023-06-19T09:29:14;99703.31;;;31.76;33.61
75629;BME280;64213;46.452;16.994;2023-06-19T09:32:27;99698.19;;;31.80;33.85
75629;BME280;64213;46.452;16.994;2023-06-19T09:35:30;99698.00;;;31.41;33.77
75629;BME280;64213;46.452;16.994;2023-06-19T09:38:35;99700.72;;;32.65;32.44
75629;BME280;64213;46.452;16.994;2023-06-19T09:41:39;99698.09;;;32.93;31.64
75629;BME280;64213;46.452;16.994;2023-06-19T09:44:42;99703.66;;;32.42;32.28
75629;BME280;64213;46.452;16.994;2023-06-19T09:47:51;99697.88;;;31.36;33.28
75629;BME280;64213;46.452;16.994;2023-06-19T09:54:17;99692.72;;;33.69;30.07
75629;BME280;64213;46.452;16.994;2023-06-19T09:57:21;99699.72;;;33.54;30.17
75629;BME280;64213;46.452;16.994;2023-06-19T10:00:23;99696.91;;;33.05;30.73
75629;BME280;64213;46.452;16.994;2023-06-19T10:03:34;99687.19;;;33.91;29.69
75629;BME280;64213;46.452;16.994;2023-06-19T10:06:44;99689.06;;;34.12;29.10
75629;BME280;64213;46.452;16.994;2023-06-19T10:10:07;99684.78;;;33.67;29.65
75629;BME280;64213;46.452;16.994;2023-06-19T10:13:14;99689.97;;;33.42;30.29
75629;BME280;64213;46.452;16.994;2023-06-19T10:16:23;99687.84;;;33.05;30.99
75629;BME280;64213;46.452;16.994;2023-06-19T10:19:32;99682.53;;;33.64;29.96
75629;BME280;64213;46.452;16.994;2023-06-19T10:22:34;99681.91;;;34.48;29.12
75629;BME280;64213;46.452;16.994;2023-06-19T10:25:39;99683.25;;;34.09;29.69
75629;BME280;64213;46.452;16.994;2023-06-19T10:28:46;99687.72;;;34.20;29.26
75629;BME280;64213;46.452;16.994;2023-06-19T10:31:50;99688.09;;;34.66;28.04
75629;BME280;64213;46.452;16.994;2023-06-19T10:34:52;99682.47;;;33.37;29.77
75629;BME280;64213;46.452;16.994;2023-06-19T10:37:54;99683.81;;;34.11;29.05
75629;BME280;64213;46.452;16.994;2023-06-19T10:40:56;99681.59;;;34.82;27.79
75629;BME280;64213;46.452;16.994;2023-06-19T10:44:03;99681.66;;;33.59;28.97
75629;BME280;64213;46.452;16.994;2023-06-19T10:47:10;99674.22;;;33.32;29.89
75629;BME280;64213;46.452;16.994;2023-06-19T10:50:14;99687.66;;;33.11;29.97
75629;BME280;64213;46.452;16.994;2023-06-19T10:53:45;99681.91;;;32.52;30.85
75629;BME280;64213;46.452;16.994;2023-06-19T10:56:47;99687.59;;;33.50;29.77
75629;BME280;64213;46.452;16.994;2023-06-19T10:59:51;99685.84;;;33.93;29.15
75629;BME280;64213;46.452;16.994;2023-06-19T11:02:55;99687.31;;;33.74;29.58
75629;BME280;64213;46.452;16.994;2023-06-19T11:05:58;99681.91;;;34.48;28.58
75629;BME280;64213;46.452;16.994;2023-06-19T11:09:01;99695.00;;;34.74;28.16
75629;BME280;64213;46.452;16.994;2023-06-19T11:12:05;99681.06;;;34.90;28.05
75629;BME280;64213;46.452;16.994;2023-06-19T11:15:10;99679.19;;;35.90;27.15
75629;BME280;64213;46.452;16.994;2023-06-19T11:18:15;99683.59;;;35.75;27.45
75629;BME280;64213;46.452;16.994;2023-06-19T11:21:18;99674.69;;;35.37;27.66
75629;BME280;64213;46.452;16.994;2023-06-19T11:24:22;99662.81;;;35.32;27.54
75629;BME280;64213;46.452;16.994;2023-06-19T11:27:24;99674.81;;;35.83;26.90
75629;BME280;64213;46.452;16.994;2023-06-19T11:30:33;99678.12;;;36.26;26.60
75629;BME280;64213;46.452;16.994;2023-06-19T11:33:36;99672.34;;;36.07;26.84
75629;BME280;64213;46.452;16.994;2023-06-19T11:36:40;99661.47;;;35.29;27.78
75629;BME280;64213;46.452;16.994;2023-06-19T11:39:46;99674.25;;;36.43;26.51
75629;BME280;64213;46.452;16.994;2023-06-19T11:42:52;99667.94;;;35.96;27.25
75629;BME280;64213;46.452;16.994;2023-06-19T11:46:06;99661.00;;;34.90;28.13
75629;BME280;64213;46.452;16.994;2023-06-19T11:52:14;99658.63;;;35.04;28.77
75629;BME280;64213;46.452;16.994;2023-06-19T11:55:16;99666.25;;;34.97;28.94
75629;BME280;64213;46.452;16.994;2023-06-19T11:58:19;99663.97;;;35.46;28.64
75629;BME280;64213;46.452;16.994;2023-06-19T12:01:24;99657.47;;;35.00;28.88
75629;BME280;64213;46.452;16.994;2023-06-19T12:04:28;99660.09;;;34.74;29.20
75629;BME280;64213;46.452;16.994;2023-06-19T12:07:30;99656.66;;;34.52;29.38
75629;BME280;64213;46.452;16.994;2023-06-19T12:10:33;99653.59;;;35.69;27.87
75629;BME280;64213;46.452;16.994;2023-06-19T12:13:36;99648.94;;;34.96;29.29
75629;BME280;64213;46.452;16.994;2023-06-19T12:16:38;99658.28;;;35.78;28.05
75629;BME280;64213;46.452;16.994;2023-06-19T12:19:41;99650.50;;;35.39;28.78
75629;BME280;64213;46.452;16.994;2023-06-19T12:22:43;99650.25;;;34.78;29.85
75629;BME280;64213;46.452;16.994;2023-06-19T12:25:46;99650.47;;;35.45;29.38
75629;BME280;64213;46.452;16.994;2023-06-19T12:28:48;99648.34;;;35.93;28.48
75629;BME280;64213;46.452;16.994;2023-06-19T12:32:02;99641.06;;;36.99;27.19
75629;BME280;64213;46.452;16.994;2023-06-19T12:35:07;99650.53;;;36.67;27.67
75629;BME280;64213;46.452;16.994;2023-06-19T12:38:10;99651.94;;;35.68;28.72
75629;BME280;64213;46.452;16.994;2023-06-19T12:41:12;99641.16;;;35.46;29.55
75629;BME280;64213;46.452;16.994;2023-06-19T12:44:14;99646.34;;;34.74;30.31
75629;BME280;64213;46.452;16.994;2023-06-19T12:47:17;99638.94;;;35.32;29.82
75629;BME280;64213;46.452;16.994;2023-06-19T12:50:20;99647.28;;;35.78;29.03
75629;BME280;64213;46.452;16.994;2023-06-19T12:53:22;99646.47;;;36.03;28.67
75629;BME280;64213;46.452;16.994;2023-06-19T12:56:29;99645.84;;;36.63;28.10
75629;BME280;64213;46.452;16.994;2023-06-19T12:59:31;99632.06;;;35.40;29.12
75629;BME280;64213;46.452;16.994;2023-06-19T13:02:34;99635.69;;;35.66;29.42
75629;BME280;64213;46.452;16.994;2023-06-19T13:05:37;99639.72;;;35.28;29.74
75629;BME280;64213;46.452;16.994;2023-06-19T13:08:39;99632.75;;;34.52;30.38
75629;BME280;64213;46.452;16.994;2023-06-19T13:11:41;99628.84;;;34.90;29.75
75629;BME280;64213;46.452;16.994;2023-06-19T13:14:43;99633.44;;;35.32;29.48
75629;BME280;64213;46.452;16.994;2023-06-19T13:17:46;99632.72;;;35.00;29.55
75629;BME280;64213;46.452;16.994;2023-06-19T13:20:48;99625.50;;;34.78;30.11
75629;BME280;64213;46.452;16.994;2023-06-19T13:23:51;99614.06;;;34.07;31.35
75629;BME280;64213;46.452;16.994;2023-06-19T13:26:53;99610.91;;;34.72;30.68
75629;BME280;64213;46.452;16.994;2023-06-19T13:29:56;99597.91;;;34.53;31.41
75629;BME280;64213;46.452;16.994;2023-06-19T13:32:58;99608.88;;;35.15;30.75
75629;BME280;64213;46.452;16.994;2023-06-19T13:36:04;99608.91;;;34.58;31.33
75629;BME280;64213;46.452;16.994;2023-06-19T13:39:06;99622.34;;;35.12;30.68
75629;BME280;64213;46.452;16.994;2023-06-19T13:42:08;99614.69;;;35.34;29.43
75629;BME280;64213;46.452;16.994;2023-06-19T13:45:10;99615.34;;;35.72;29.15
75629;BME280;64213;46.452;16.994;2023-06-19T13:48:13;99606.31;;;34.88;30.39
75629;BME280;64213;46.452;16.994;2023-06-19T13:51:16;99617.19;;;34.68;30.94
75629;BME280;64213;46.452;16.994;2023-06-19T13:54:19;99610.22;;;35.03;30.46
75629;BME280;64213;46.452;16.994;2023-06-19T13:57:22;99613.37;;;35.57;29.68
75629;BME280;64213;46.452;16.994;2023-06-19T14:00:25;99610.00;;;35.14;29.87
75629;BME280;64213;46.452;16.994;2023-06-19T14:03:27;99608.12;;;35.46;29.69
75629;BME280;64213;46.452;16.994;2023-06-19T14:06:30;99605.97;;;34.27;30.51
75629;BME280;64213;46.452;16.994;2023-06-19T14:09:32;99611.59;;;34.10;30.70
75629;BME280;64213;46.452;16.994;2023-06-19T14:12:34;99601.41;;;35.01;29.30
75629;BME280;64213;46.452;16.994;2023-06-19T14:15:37;99617.00;;;35.78;28.72
75629;BME280;64213;46.452;16.994;2023-06-19T14:18:39;99609.81;;;35.57;28.70
75629;BME280;64213;46.452;16.994;2023-06-19T14:21:41;99613.00;;;35.08;28.70
75629;BME280;64213;46.452;16.994;2023-06-19T14:24:45;99615.06;;;35.58;28.01
75629;BME280;64213;46.452;16.994;2023-06-19T14:27:48;99616.41;;;35.86;27.72
75629;BME280;64213;46.452;16.994;2023-06-19T14:30:51;99613.34;;;35.37;28.67
75629;BME280;64213;46.452;16.994;2023-06-19T14:33:53;99617.84;;;34.43;29.24
75629;BME280;64213;46.452;16.994;2023-06-19T14:36:56;99613.50;;;34.52;29.56
75629;BME280;64213;46.452;16.994;2023-06-19T14:39:59;99611.03;;;35.03;29.63
75629;BME280;64213;46.452;16.994;2023-06-19T14:43:01;99607.03;;;35.52;29.19
75629;BME280;64213;46.452;16.994;2023-06-19T14:46:04;99612.03;;;35.75;28.94
75629;BME280;64213;46.452;16.994;2023-06-19T14:49:12;99610.59;;;34.64;30.88
75629;BME280;64213;46.452;16.994;2023-06-19T14:52:20;99613.25;;;33.79;32.14
75629;BME280;64213;46.452;16.994;2023-06-19T14:55:23;99613.97;;;34.34;31.26
75629;BME280;64213;46.452;16.994;2023-06-19T14:58:25;99607.81;;;34.59;30.54
75629;BME280;64213;46.452;16.994;2023-06-19T15:01:30;99609.88;;;34.41;30.58
75629;BME280;64213;46.452;16.994;2023-06-19T15:04:33;99602.22;;;34.43;30.92
75629;BME280;64213;46.452;16.994;2023-06-19T15:07:36;99607.94;;;33.67;31.43
75629;BME280;64213;46.452;16.994;2023-06-19T15:10:39;99609.69;;;34.11;30.10
75629;BME280;64213;46.452;16.994;2023-06-19T15:13:42;99603.13;;;34.17;29.87
75629;BME280;64213;46.452;16.994;2023-06-19T15:16:44;99598.88;;;33.40;31.77
75629;BME280;64213;46.452;16.994;2023-06-19T15:19:46;99594.63;;;33.81;31.79
75629;BME280;64213;46.452;16.994;2023-06-19T15:22:48;99595.97;;;33.24;32.51
75629;BME280;64213;46.452;16.994;2023-06-19T15:25:51;99598.50;;;33.31;32.81
75629;BME280;64213;46.452;16.994;2023-06-19T15:28:54;99596.97;;;33.99;31.81
75629;BME280;64213;46.452;16.994;2023-06-19T15:31:56;99598.47;;;33.26;32.43
75629;BME280;64213;46.452;16.994;2023-06-19T15:34:58;99597.97;;;33.29;32.21
75629;BME280;64213;46.452;16.994;2023-06-19T15:38:01;99600.41;;;33.03;32.74
75629;BME280;64213;46.452;16.994;2023-06-19T15:41:03;99602.34;;;32.42;32.62
75629;BME280;64213;46.452;16.994;2023-06-19T15:44:05;99595.56;;;32.67;32.76
75629;BME280;64213;46.452;16.994;2023-06-19T15:47:07;99594.03;;;32.76;33.37
75629;BME280;64213;46.452;16.994;2023-06-19T15:50:10;99599.09;;;32.45;32.88
75629;BME280;64213;46.452;16.994;2023-06-19T15:53:12;99589.16;;;32.39;33.09
75629;BME280;64213;46.452;16.994;2023-06-19T15:56:14;99595.31;;;31.79;33.79
75629;BME280;64213;46.452;16.994;2023-06-19T15:59:17;99596.66;;;31.93;33.77
75629;BME280;64213;46.452;16.994;2023-06-19T16:02:20;99592.31;;;31.63;35.11
75629;BME280;64213;46.452;16.994;2023-06-19T16:05:22;99591.81;;;31.66;35.27
75629;BME280;64213;46.452;16.994;2023-06-19T16:08:24;99589.91;;;31.50;34.88